createdAt,value
2018-09-09T00:00:50.018Z,82.50
2018-09-09T00:03:53.073Z,83.80
2018-09-09T00:06:56.145Z,83.90
2018-09-09T00:09:59.233Z,84.10
2018-09-09T00:13:02.298Z,84.00
2018-09-09T00:16:05.384Z,82.90
2018-09-09T00:19:08.497Z,82.80
2018-09-09T00:22:11.588Z,83.00
2018-09-09T00:25:14.665Z,83.20
2018-09-09T00:28:17.739Z,82.00
2018-09-09T00:31:20.835Z,81.80
2018-09-09T00:34:23.989Z,82.00
2018-09-09T00:37:27.076Z,81.20
2018-09-09T00:40:30.154Z,81.60
2018-09-09T00:43:33.229Z,81.40
2018-09-09T00:46:36.282Z,81.30
2018-09-09T00:49:44.777Z,80.90
2018-09-09T00:52:53.345Z,80.60
2018-09-09T00:55:56.449Z,81.10
2018-09-09T00:58:59.529Z,81.30
2018-09-09T01:02:02.681Z,81.30
2018-09-09T01:05:05.757Z,80.60
2018-09-09T01:08:08.866Z,81.10
2018-09-09T01:11:11.952Z,80.40
2018-09-09T01:14:15.024Z,80.40
2018-09-09T01:17:18.092Z,80.40
2018-09-09T01:20:21.427Z,82.20
2018-09-09T01:23:24.620Z,82.40
2018-09-09T01:26:27.693Z,82.60
2018-09-09T01:29:30.778Z,83.20
2018-09-09T01:32:33.881Z,84.00
2018-09-09T01:35:36.947Z,83.30
2018-09-09T01:38:40.030Z,84.70
2018-09-09T01:41:43.085Z,84.20
2018-09-09T01:44:46.176Z,84.00
2018-09-09T01:47:49.237Z,84.70
2018-09-09T01:50:52.326Z,86.10
2018-09-09T01:53:55.421Z,86.40
2018-09-09T01:56:58.538Z,87.20
2018-09-09T02:00:01.607Z,84.40
2018-09-09T02:03:04.701Z,86.70
2018-09-09T02:06:07.798Z,87.10
2018-09-09T02:09:10.890Z,88.40
2018-09-09T02:12:13.983Z,88.70
2018-09-09T02:15:17.077Z,88.80
2018-09-09T02:18:20.169Z,88.80
2018-09-09T02:21:23.303Z,88.60
2018-09-09T02:24:26.397Z,88.60
2018-09-09T02:27:29.529Z,88.50
2018-09-09T02:30:32.617Z,88.60
2018-09-09T02:33:35.714Z,89.30
2018-09-09T02:36:38.791Z,88.80
2018-09-09T02:39:41.998Z,89.10
2018-09-09T02:42:45.074Z,88.70
2018-09-09T02:45:48.361Z,89.70
2018-09-09T02:48:51.431Z,90.20
2018-09-09T02:51:54.548Z,90.70
2018-09-09T02:54:57.626Z,90.80
2018-09-09T02:58:00.720Z,91.00
2018-09-09T03:01:04.162Z,91.20
2018-09-09T03:04:07.441Z,91.50
2018-09-09T03:07:10.542Z,90.30
2018-09-09T03:10:13.607Z,90.00
2018-09-09T03:13:16.711Z,89.00
2018-09-09T03:16:19.795Z,87.50
2018-09-09T03:19:22.864Z,86.80
2018-09-09T03:22:26.100Z,86.70
2018-09-09T03:25:29.163Z,86.00
2018-09-09T03:28:32.919Z,86.00
2018-09-09T03:31:35.980Z,86.10
2018-09-09T03:34:39.091Z,85.10
2018-09-09T03:37:42.358Z,84.40
2018-09-09T03:40:45.463Z,84.30
2018-09-09T03:43:48.753Z,84.30
2018-09-09T03:46:51.853Z,84.30
2018-09-09T03:49:54.961Z,85.00
2018-09-09T03:52:58.060Z,84.30
2018-09-09T03:56:01.154Z,83.70
2018-09-09T03:59:04.293Z,84.50
2018-09-09T04:02:07.433Z,84.80
2018-09-09T04:05:10.537Z,83.70
2018-09-09T04:08:13.620Z,84.70
2018-09-09T04:11:16.714Z,83.60
2018-09-09T04:14:19.781Z,84.10
2018-09-09T04:17:22.916Z,84.60
2018-09-09T04:20:26.010Z,84.80
2018-09-09T04:23:29.102Z,84.10
2018-09-09T04:26:32.192Z,84.00
2018-09-09T04:29:35.297Z,83.90
2018-09-09T04:32:38.406Z,83.40
2018-09-09T04:35:41.485Z,83.40
2018-09-09T04:38:44.591Z,84.10
2018-09-09T04:41:47.668Z,84.50
2018-09-09T04:44:50.767Z,84.20
2018-09-09T04:47:53.862Z,83.60
2018-09-09T04:50:56.949Z,83.60
2018-09-09T04:54:00.037Z,83.70
2018-09-09T04:57:03.141Z,83.70
2018-09-09T05:00:06.417Z,83.40
2018-09-09T05:03:09.541Z,83.60
2018-09-09T05:06:12.606Z,83.40
2018-09-09T05:09:15.693Z,83.20
2018-09-09T05:12:18.770Z,83.10
2018-09-09T05:15:21.894Z,82.90
2018-09-09T05:18:24.977Z,83.00
2018-09-09T05:21:28.043Z,83.50
2018-09-09T05:24:31.165Z,83.10
2018-09-09T05:27:34.253Z,83.10
2018-09-09T05:30:37.353Z,83.30
2018-09-09T05:33:40.450Z,83.10
2018-09-09T05:36:43.545Z,85.70
2018-09-09T05:39:46.621Z,87.10
2018-09-09T05:42:49.713Z,86.20
2018-09-09T05:45:52.821Z,85.80
2018-09-09T05:48:55.909Z,85.00
2018-09-09T05:51:58.983Z,84.50
2018-09-09T05:55:02.093Z,84.10
2018-09-09T05:58:06.025Z,84.70
2018-09-09T06:01:09.121Z,83.90
2018-09-09T06:04:12.245Z,82.40
2018-09-09T06:07:15.724Z,81.70
2018-09-09T06:10:18.877Z,81.70
2018-09-09T06:13:23.369Z,82.50
2018-09-09T06:16:26.470Z,81.60
2018-09-09T06:19:29.592Z,80.10
2018-09-09T06:22:32.657Z,79.30
2018-09-09T06:25:35.782Z,78.80
2018-09-09T06:28:38.841Z,79.40
2018-09-09T06:31:41.972Z,80.50
2018-09-09T06:34:45.063Z,80.80
2018-09-09T06:37:48.200Z,80.00
2018-09-09T06:40:51.314Z,80.20
2018-09-09T06:43:54.370Z,80.00
2018-09-09T06:46:57.485Z,79.30
2018-09-09T06:50:00.637Z,78.20
2018-09-09T06:53:03.749Z,77.80
2018-09-09T06:56:06.869Z,76.60
2018-09-09T06:59:09.958Z,75.60
2018-09-09T07:02:13.089Z,74.90
2018-09-09T07:05:16.139Z,72.90
2018-09-09T07:08:19.261Z,69.70
2018-09-09T07:11:22.438Z,69.10
2018-09-09T07:14:25.449Z,67.80
2018-09-09T07:17:28.526Z,67.30
2018-09-09T07:20:31.631Z,64.00
2018-09-09T07:23:34.721Z,57.10
2018-09-09T07:26:37.814Z,50.10
2018-09-09T07:29:55.375Z,46.00
2018-09-09T07:32:58.525Z,45.60
2018-09-09T07:36:01.662Z,46.00
2018-09-09T07:39:05.877Z,48.10
2018-09-09T07:42:08.978Z,47.10
2018-09-09T07:45:12.090Z,45.20
2018-09-09T07:48:15.338Z,42.20
2018-09-09T07:51:18.670Z,39.20
2018-09-09T07:54:21.970Z,37.10
2018-09-09T07:57:25.087Z,37.50
2018-09-09T08:00:28.301Z,37.40
2018-09-09T08:03:31.349Z,36.70
2018-09-09T08:06:34.463Z,37.40
2018-09-09T08:09:37.595Z,38.20
2018-09-09T08:12:40.660Z,39.00
2018-09-09T08:15:43.766Z,41.40
2018-09-09T08:18:46.842Z,43.20
2018-09-09T08:21:49.975Z,44.30
2018-09-09T08:24:53.077Z,46.10
2018-09-09T08:27:56.219Z,47.90
2018-09-09T08:30:59.313Z,47.90
2018-09-09T08:34:02.420Z,49.30
2018-09-09T08:37:05.596Z,49.70
2018-09-09T08:40:08.714Z,49.90
2018-09-09T08:43:11.817Z,49.30
2018-09-09T08:46:20.377Z,49.80
2018-09-09T08:49:23.525Z,50.00
2018-09-09T08:52:26.621Z,48.30
2018-09-09T08:55:29.713Z,46.10
2018-09-09T08:58:32.793Z,45.00
2018-09-09T09:01:35.893Z,44.00
2018-09-09T09:04:38.986Z,43.20
2018-09-09T09:07:42.185Z,44.00
2018-09-09T09:10:45.197Z,45.30
2018-09-09T09:13:48.293Z,46.50
2018-09-09T09:16:51.419Z,47.30
2018-09-09T09:19:54.536Z,48.60
2018-09-09T09:22:57.657Z,48.40
2018-09-09T09:26:00.733Z,47.00
2018-09-09T09:29:03.861Z,48.50
2018-09-09T09:32:07.140Z,49.30
2018-09-09T09:35:10.242Z,49.40
2018-09-09T09:38:13.326Z,50.50
2018-09-09T09:41:16.435Z,50.40
2018-09-09T09:44:19.641Z,48.90
2018-09-09T09:47:22.737Z,49.40
2018-09-09T09:50:25.817Z,48.40
2018-09-09T09:53:28.898Z,49.70
2018-09-09T09:56:31.988Z,49.70
2018-09-09T09:59:35.077Z,51.10
2018-09-09T10:02:38.197Z,51.90
2018-09-09T10:05:41.302Z,52.40
2018-09-09T10:08:45.256Z,52.00
2018-09-09T10:11:48.341Z,52.30
2018-09-09T10:14:51.501Z,52.30
2018-09-09T10:17:54.592Z,51.00
2018-09-09T10:20:57.696Z,51.60
2018-09-09T10:24:00.796Z,51.70
2018-09-09T10:27:03.879Z,51.70
2018-09-09T10:30:07.111Z,51.90
2018-09-09T10:33:10.173Z,52.30
2018-09-09T10:36:13.280Z,51.80
2018-09-09T10:39:16.347Z,51.00
2018-09-09T10:42:19.454Z,50.20
2018-09-09T10:45:22.557Z,50.00
2018-09-09T10:48:25.657Z,50.00
2018-09-09T10:51:28.766Z,51.20
2018-09-09T10:54:34.009Z,50.70
2018-09-09T10:57:37.097Z,50.20
2018-09-09T11:00:40.218Z,50.00
2018-09-09T11:03:43.333Z,49.70
2018-09-09T11:06:46.600Z,50.50
2018-09-09T11:09:49.665Z,48.90
2018-09-09T11:12:52.824Z,49.10
2018-09-09T11:15:55.886Z,48.30
2018-09-09T11:18:59.093Z,48.10
2018-09-09T11:22:02.136Z,47.60
2018-09-09T11:25:05.327Z,48.40
2018-09-09T11:28:08.584Z,48.90
2018-09-09T11:31:11.685Z,48.50
2018-09-09T11:34:15.813Z,48.70
2018-09-09T11:37:18.989Z,49.00
2018-09-09T11:40:22.080Z,49.40
2018-09-09T11:43:25.317Z,49.60
2018-09-09T11:46:28.393Z,50.30
2018-09-09T11:49:31.505Z,51.10
2018-09-09T11:52:34.585Z,50.70
2018-09-09T11:55:37.684Z,49.90
2018-09-09T11:58:40.777Z,50.20
2018-09-09T12:01:43.858Z,50.00
2018-09-09T12:04:46.959Z,50.70
2018-09-09T12:07:50.053Z,50.40
2018-09-09T12:10:53.134Z,50.90
2018-09-09T12:13:56.225Z,50.70
2018-09-09T12:16:59.306Z,51.80
2018-09-09T12:20:02.396Z,50.90
2018-09-09T12:23:05.493Z,50.80
2018-09-09T12:26:08.617Z,50.80
2018-09-09T12:29:11.664Z,51.10
2018-09-09T12:32:14.834Z,51.20
2018-09-09T12:35:17.873Z,51.40
2018-09-09T12:38:20.960Z,51.20
2018-09-09T12:41:24.057Z,50.90
2018-09-09T12:44:32.450Z,51.00
2018-09-09T12:47:41.166Z,51.40
2018-09-09T12:50:44.266Z,50.30
2018-09-09T12:53:47.429Z,50.80
2018-09-09T12:56:50.545Z,50.40
2018-09-09T12:59:53.681Z,50.20
2018-09-09T13:02:56.765Z,50.40
2018-09-09T13:05:59.844Z,50.40
2018-09-09T13:09:02.989Z,49.50
2018-09-09T13:12:06.265Z,49.60
2018-09-09T13:15:09.369Z,50.20
2018-09-09T13:18:12.467Z,49.80
2018-09-09T13:21:15.539Z,49.60
2018-09-09T13:24:18.659Z,50.10
2018-09-09T13:27:21.738Z,49.80
2018-09-09T13:30:24.865Z,50.40
2018-09-09T13:33:27.981Z,50.20
2018-09-09T13:36:31.066Z,50.80
2018-09-09T13:39:34.153Z,50.70
2018-09-09T13:42:37.298Z,50.70
2018-09-09T13:45:40.431Z,51.10
2018-09-09T13:48:43.523Z,50.80
2018-09-09T13:51:46.630Z,50.70
2018-09-09T13:54:49.725Z,51.00
2018-09-09T13:57:52.842Z,50.10
2018-09-09T14:00:55.929Z,50.90
2018-09-09T14:03:59.038Z,51.20
2018-09-09T14:07:02.091Z,51.40
2018-09-09T14:10:07.569Z,51.20
2018-09-09T14:13:10.659Z,51.40
2018-09-09T14:16:13.817Z,50.90
2018-09-09T14:19:18.858Z,51.40
2018-09-09T14:22:22.227Z,51.30
2018-09-09T14:25:26.697Z,50.90
2018-09-09T14:28:31.989Z,51.30
2018-09-09T14:31:35.407Z,50.90
2018-09-09T14:34:41.158Z,52.50
2018-09-09T14:37:44.314Z,51.50
2018-09-09T14:40:47.414Z,51.60
2018-09-09T14:43:51.541Z,52.20
2018-09-09T14:46:54.882Z,52.40
2018-09-09T14:49:59.597Z,52.80
2018-09-09T14:53:02.775Z,52.60
2018-09-09T14:56:05.829Z,51.60
2018-09-09T14:59:08.909Z,51.40
2018-09-09T15:02:12.013Z,52.00
2018-09-09T15:05:15.085Z,52.00
2018-09-09T15:08:18.203Z,52.30
2018-09-09T15:11:21.282Z,52.60
2018-09-09T15:14:24.387Z,52.40
2018-09-09T15:17:27.482Z,52.80
2018-09-09T15:20:30.794Z,53.00
2018-09-09T15:23:33.893Z,52.60
2018-09-09T15:26:36.949Z,52.70
2018-09-09T15:29:40.046Z,52.50
2018-09-09T15:32:43.134Z,52.50
2018-09-09T15:35:46.229Z,52.80
2018-09-09T15:38:49.453Z,52.80
2018-09-09T15:41:52.545Z,52.80
2018-09-09T15:44:55.641Z,52.00
2018-09-09T15:47:58.749Z,52.60
2018-09-09T15:51:01.827Z,53.50
2018-09-09T15:54:04.918Z,53.40
2018-09-09T15:57:08.018Z,54.10
2018-09-09T16:00:11.978Z,54.30
2018-09-09T16:03:15.069Z,54.60
2018-09-09T16:06:18.172Z,54.90
2018-09-09T16:09:21.298Z,55.50
2018-09-09T16:12:24.374Z,54.80
2018-09-09T16:15:27.480Z,55.00
2018-09-09T16:18:30.589Z,55.50
2018-09-09T16:21:33.689Z,55.90
2018-09-09T16:24:36.762Z,56.10
2018-09-09T16:27:39.853Z,56.30
2018-09-09T16:30:42.969Z,56.80
2018-09-09T16:33:46.141Z,57.30
2018-09-09T16:36:49.237Z,57.80
2018-09-09T16:39:52.338Z,58.20
2018-09-09T16:42:55.405Z,58.60
2018-09-09T16:45:58.601Z,59.00
2018-09-09T16:49:01.683Z,59.40
2018-09-09T16:52:04.841Z,59.30
2018-09-09T16:55:07.917Z,59.40
2018-09-09T16:58:11.035Z,59.70
2018-09-09T17:01:14.204Z,59.90
2018-09-09T17:04:17.197Z,60.40
2018-09-09T17:07:20.581Z,60.80
2018-09-09T17:10:24.121Z,61.60
2018-09-09T17:13:27.489Z,61.20
2018-09-09T17:16:30.622Z,62.00
2018-09-09T17:19:33.697Z,61.70
2018-09-09T17:22:36.794Z,62.60
2018-09-09T17:25:39.889Z,63.80
2018-09-09T17:28:42.995Z,63.30
2018-09-09T17:31:46.222Z,64.40
2018-09-09T17:34:49.314Z,65.80
2018-09-09T17:37:52.409Z,66.40
2018-09-09T17:40:55.501Z,67.10
2018-09-09T17:43:58.601Z,67.80
2018-09-09T17:47:01.689Z,68.20
2018-09-09T17:50:05.100Z,69.10
2018-09-09T17:53:08.158Z,69.20
2018-09-09T17:56:11.461Z,69.80
2018-09-09T17:59:14.541Z,70.80
2018-09-09T18:05:48.880Z,71.40
2018-09-09T18:08:51.965Z,71.60
2018-09-09T18:11:55.050Z,72.10
2018-09-09T18:14:58.138Z,72.50
2018-09-09T18:18:01.225Z,72.40
2018-09-09T18:21:04.341Z,72.30
2018-09-09T18:24:07.426Z,71.70
2018-09-09T18:27:10.553Z,72.40
2018-09-09T18:30:13.657Z,72.50
2018-09-09T18:33:16.749Z,73.80
2018-09-09T18:36:19.893Z,72.70
2018-09-09T18:39:22.989Z,72.90
2018-09-09T18:42:26.090Z,72.90
2018-09-09T18:45:29.186Z,72.90
2018-09-09T18:48:32.399Z,73.20
2018-09-09T18:51:35.562Z,73.60
2018-09-09T18:54:38.642Z,74.00
2018-09-09T18:57:41.763Z,74.10
2018-09-09T19:00:45.597Z,74.10
2018-09-09T19:03:48.698Z,74.10
2018-09-09T19:06:52.392Z,74.30
2018-09-09T19:09:55.482Z,74.60
2018-09-09T19:12:58.726Z,74.90
2018-09-09T19:16:01.865Z,76.30
2018-09-09T19:19:04.973Z,75.80
2018-09-09T19:22:08.045Z,75.30
2018-09-09T19:25:11.158Z,75.60
2018-09-09T19:28:14.229Z,75.80
2018-09-09T19:31:17.338Z,76.20
2018-09-09T19:34:20.445Z,76.80
2018-09-09T19:37:23.609Z,77.20
2018-09-09T19:40:26.721Z,77.40
2018-09-09T19:43:30.104Z,77.60
2018-09-09T19:46:33.202Z,77.90
2018-09-09T19:49:36.285Z,78.10
2018-09-09T19:52:39.421Z,79.00
2018-09-09T19:55:43.199Z,78.90
2018-09-09T19:58:46.654Z,78.90
2018-09-09T20:01:49.718Z,79.40
2018-09-09T20:04:52.903Z,80.00
2018-09-09T20:07:55.968Z,80.00
2018-09-09T20:11:00.500Z,80.30
2018-09-09T20:14:03.573Z,80.50
2018-09-09T20:17:06.800Z,81.50
2018-09-09T20:20:09.912Z,81.20
2018-09-09T20:23:12.977Z,81.30
2018-09-09T20:26:16.097Z,81.20
2018-09-09T20:29:19.165Z,81.50
2018-09-09T20:32:22.342Z,81.90
2018-09-09T20:35:25.441Z,82.40
2018-09-09T20:38:28.597Z,83.20
2018-09-09T20:41:33.701Z,82.60
2018-09-09T20:44:36.773Z,82.50
2018-09-09T20:47:39.866Z,82.70
2018-09-09T20:50:43.000Z,82.90
2018-09-09T20:53:46.094Z,83.00
2018-09-09T20:56:49.170Z,82.80
2018-09-09T20:59:52.252Z,82.70
2018-09-09T21:02:55.390Z,82.50
2018-09-09T21:05:58.466Z,82.80
2018-09-09T21:09:01.581Z,82.70
2018-09-09T21:12:04.833Z,82.50
2018-09-09T21:15:08.066Z,82.70
2018-09-09T21:18:11.149Z,82.60
2018-09-09T21:21:14.232Z,82.40
2018-09-09T21:24:17.337Z,82.40
2018-09-09T21:27:20.486Z,82.20
2018-09-09T21:30:23.629Z,82.30
2018-09-09T21:33:32.777Z,82.50
2018-09-09T21:36:35.864Z,82.30
2018-09-09T21:39:38.953Z,82.10
2018-09-09T21:42:42.025Z,82.20
2018-09-09T21:45:45.175Z,82.10
2018-09-09T21:48:48.473Z,81.80
2018-09-09T21:51:51.750Z,81.40
2018-09-09T21:54:54.837Z,81.30
2018-09-09T21:57:57.938Z,81.30
2018-09-09T22:01:06.623Z,81.50
2018-09-09T22:04:09.714Z,81.40
2018-09-09T22:07:13.762Z,81.40
2018-09-09T22:10:16.848Z,81.50
2018-09-09T22:13:20.004Z,81.50
2018-09-09T22:16:23.349Z,81.50
2018-09-09T22:19:26.462Z,81.60
2018-09-09T22:22:29.533Z,81.50
2018-09-09T22:25:32.717Z,81.60
2018-09-09T22:28:35.929Z,81.40
2018-09-09T22:31:39.025Z,81.30
2018-09-09T22:34:42.122Z,80.90
2018-09-09T22:37:45.194Z,81.00
2018-09-09T22:40:48.478Z,81.00
2018-09-09T22:43:51.578Z,81.00
2018-09-09T22:46:54.742Z,81.30
2018-09-09T22:49:57.840Z,81.40
2018-09-09T22:53:00.941Z,81.60
2018-09-09T22:56:04.030Z,81.70
2018-09-09T22:59:07.157Z,81.60
2018-09-09T23:02:10.268Z,81.40
2018-09-09T23:05:13.389Z,81.20
2018-09-09T23:08:16.468Z,81.00
2018-09-09T23:11:19.733Z,81.20
2018-09-09T23:14:22.813Z,81.20
2018-09-09T23:17:25.893Z,82.20
2018-09-09T23:20:29.017Z,81.90
2018-09-09T23:23:32.110Z,82.10
2018-09-09T23:26:35.223Z,82.20
2018-09-09T23:29:38.308Z,82.20
2018-09-09T23:32:41.409Z,82.30
2018-09-09T23:35:44.548Z,82.50
2018-09-09T23:38:47.700Z,82.70
2018-09-09T23:41:50.773Z,82.70
2018-09-09T23:44:53.893Z,82.80
2018-09-09T23:47:56.989Z,82.60
2018-09-09T23:51:00.098Z,83.10
2018-09-09T23:54:03.173Z,83.00
2018-09-09T23:57:06.287Z,82.70
